createdAt,value
2023-05-11T00:01:56.517Z,2.37
2023-05-11T00:04:59.369Z,2.70
2023-05-11T00:08:03.424Z,2.92
2023-05-11T00:11:10.371Z,2.80
2023-05-11T00:14:13.176Z,2.50
2023-05-11T00:17:16.129Z,2.47
2023-05-11T00:20:19.036Z,2.60
2023-05-11T00:23:22.123Z,2.70
2023-05-11T00:26:24.634Z,2.40
2023-05-11T00:29:27.324Z,2.70
2023-05-11T00:32:29.768Z,2.60
2023-05-11T00:35:32.808Z,2.83
2023-05-11T00:38:36.700Z,2.60
2023-05-11T00:41:39.589Z,2.73
2023-05-11T00:44:44.279Z,2.50
2023-05-11T00:47:47.549Z,2.40
2023-05-11T00:50:50.542Z,2.40
2023-05-11T00:53:53.431Z,2.50
2023-05-11T00:56:55.911Z,2.80
2023-05-11T00:59:59.383Z,2.60
2023-05-11T01:03:03.676Z,2.67
2023-05-11T01:06:11.912Z,2.60
2023-05-11T01:09:40.036Z,2.33
2023-05-11T01:12:58.828Z,2.50
2023-05-11T01:19:24.513Z,2.37
2023-05-11T01:22:35.484Z,2.65
2023-05-11T01:25:38.739Z,2.55
2023-05-11T01:29:07.831Z,2.90
2023-05-11T01:32:19.131Z,2.60
2023-05-11T01:35:23.716Z,3.05
2023-05-11T01:38:28.828Z,3.00
2023-05-11T01:41:34.056Z,3.00
2023-05-11T01:44:42.566Z,2.90
2023-05-11T01:47:49.204Z,3.10
2023-05-11T01:50:52.512Z,2.97
2023-05-11T01:53:56.437Z,3.10
2023-05-11T01:56:59.684Z,2.47
2023-05-11T02:00:03.191Z,2.73
2023-05-11T02:03:15.767Z,2.73
2023-05-11T02:06:19.083Z,2.60
2023-05-11T02:09:22.057Z,3.00
2023-05-11T02:12:27.132Z,3.08
2023-05-11T02:15:31.611Z,3.03
2023-05-11T02:18:35.749Z,2.40
2023-05-11T02:21:41.692Z,2.75
2023-05-11T02:24:44.784Z,2.90
2023-05-11T02:27:47.241Z,2.92
2023-05-11T02:30:54.173Z,3.33
2023-05-11T02:34:01.554Z,3.30
2023-05-11T02:37:12.714Z,3.22
2023-05-11T02:40:17.872Z,3.50
2023-05-11T02:43:23.857Z,3.50
2023-05-11T02:46:33.561Z,3.20
2023-05-11T02:49:38.206Z,3.77
2023-05-11T02:52:45.521Z,3.50
2023-05-11T02:55:48.704Z,3.65
2023-05-11T02:58:51.155Z,3.65
2023-05-11T03:01:54.426Z,3.73
2023-05-11T03:04:56.964Z,3.40
2023-05-11T03:08:00.004Z,3.40
2023-05-11T03:11:03.412Z,3.83
2023-05-11T03:17:13.019Z,4.10
2023-05-11T03:20:17.716Z,4.20
2023-05-11T03:23:20.898Z,3.65
2023-05-11T03:26:23.966Z,3.65
2023-05-11T03:29:26.661Z,3.95
2023-05-11T03:32:29.750Z,3.80
2023-05-11T03:35:34.137Z,3.80
2023-05-11T03:38:37.879Z,3.08
2023-05-11T03:41:41.671Z,3.50
2023-05-11T03:44:47.323Z,4.07
2023-05-11T03:47:52.425Z,4.20
2023-05-11T03:50:56.195Z,4.03
2023-05-11T03:53:59.158Z,3.87
2023-05-11T03:57:01.919Z,3.87
2023-05-11T04:00:05.065Z,3.72
2023-05-11T04:06:22.170Z,4.00
2023-05-11T04:09:25.746Z,3.60
2023-05-11T04:12:28.467Z,3.53
2023-05-11T04:15:30.848Z,3.67
2023-05-11T04:18:33.802Z,4.20
2023-05-11T04:21:36.492Z,3.77
2023-05-11T04:24:39.595Z,3.35
2023-05-11T04:27:43.364Z,3.65
2023-05-11T04:30:47.182Z,3.15
2023-05-11T04:33:49.801Z,3.60
2023-05-11T04:36:53.468Z,3.67
2023-05-11T04:39:57.155Z,3.10
2023-05-11T04:42:59.907Z,3.25
2023-05-11T04:46:02.374Z,3.40
2023-05-11T04:49:05.778Z,3.10
2023-05-11T04:52:08.393Z,3.67
2023-05-11T04:55:12.021Z,3.10
2023-05-11T04:58:15.397Z,3.65
2023-05-11T05:01:20.440Z,3.83
2023-05-11T05:04:22.988Z,2.23
2023-05-11T05:07:25.821Z,3.20
2023-05-11T05:10:28.287Z,3.40
2023-05-11T05:13:31.171Z,3.53
2023-05-11T05:16:33.653Z,3.20
2023-05-11T05:19:36.460Z,3.10
2023-05-11T05:22:39.111Z,3.70
2023-05-11T05:25:41.946Z,2.97
2023-05-11T05:28:44.447Z,3.58
2023-05-11T05:31:47.499Z,3.62
2023-05-11T05:34:50.389Z,3.67
2023-05-11T05:37:53.244Z,3.40
2023-05-11T05:40:56.014Z,3.47
2023-05-11T05:44:00.193Z,3.47
2023-05-11T05:47:02.706Z,3.20
2023-05-11T05:50:07.529Z,3.33
2023-05-11T05:53:10.087Z,3.63
2023-05-11T05:56:13.061Z,3.40
2023-05-11T05:59:15.924Z,3.37
2023-05-11T06:02:20.071Z,3.20
2023-05-11T06:05:24.034Z,3.43
2023-05-11T06:08:27.338Z,3.20
2023-05-11T06:11:30.100Z,3.37
2023-05-11T06:17:37.852Z,3.05
2023-05-11T06:20:40.506Z,3.20
2023-05-11T06:23:43.381Z,3.20
2023-05-11T06:29:50.392Z,2.78
2023-05-11T06:32:53.087Z,2.80
2023-05-11T06:35:56.199Z,2.87
2023-05-11T06:39:00.326Z,2.97
2023-05-11T06:42:06.604Z,2.80
2023-05-11T06:45:10.173Z,2.90
2023-05-11T06:48:13.867Z,2.83
2023-05-11T06:54:20.042Z,2.77
2023-05-11T06:57:22.752Z,2.17
2023-05-11T07:00:25.721Z,2.80
2023-05-11T07:03:28.327Z,2.40
2023-05-11T07:06:31.104Z,2.33
2023-05-11T07:09:33.652Z,2.27
2023-05-11T07:12:37.262Z,2.12
2023-05-11T07:15:39.783Z,1.60
2023-05-11T07:18:42.563Z,2.50
2023-05-11T07:21:45.093Z,3.03
2023-05-11T07:24:47.857Z,2.63
2023-05-11T07:27:50.460Z,2.25
2023-05-11T07:30:53.218Z,2.65
2023-05-11T07:33:56.315Z,2.45
2023-05-11T07:36:59.259Z,2.70
2023-05-11T07:40:01.806Z,2.70
2023-05-11T07:43:04.588Z,2.30
2023-05-11T07:49:17.290Z,1.87
2023-05-11T07:52:23.124Z,1.90
2023-05-11T07:55:26.041Z,2.30
2023-05-11T07:58:28.974Z,2.60
2023-05-11T08:01:32.561Z,2.75
2023-05-11T08:04:36.371Z,1.98
2023-05-11T08:07:41.125Z,2.20
2023-05-11T08:10:44.599Z,2.20
2023-05-11T08:13:47.290Z,2.25
2023-05-11T08:16:50.456Z,2.25
2023-05-11T08:19:53.112Z,2.35
2023-05-11T08:22:55.935Z,2.20
2023-05-11T08:25:58.348Z,2.50
2023-05-11T08:29:01.281Z,2.10
2023-05-11T08:32:03.884Z,2.33
2023-05-11T08:35:07.215Z,2.42
2023-05-11T08:38:09.821Z,2.77
2023-05-11T08:41:12.957Z,2.80
2023-05-11T08:44:16.639Z,3.37
2023-05-11T08:47:23.264Z,2.50
2023-05-11T08:50:27.007Z,2.33
2023-05-11T08:53:31.517Z,2.40
2023-05-11T08:56:37.438Z,2.07
2023-05-11T08:59:42.198Z,2.30
2023-05-11T09:02:44.952Z,2.50
2023-05-11T09:05:48.440Z,2.67
2023-05-11T09:08:51.168Z,2.10
2023-05-11T09:11:54.319Z,2.63
2023-05-11T09:15:02.024Z,2.20
2023-05-11T09:18:05.628Z,2.10
2023-05-11T09:21:08.307Z,1.73
2023-05-11T09:24:12.998Z,2.12
2023-05-11T09:30:24.147Z,1.80
2023-05-11T09:33:26.684Z,1.73
2023-05-11T09:36:29.809Z,2.10
2023-05-11T09:39:42.070Z,2.00
2023-05-11T09:42:50.600Z,2.00
2023-05-11T09:46:07.496Z,1.92
2023-05-11T09:49:12.095Z,2.17
2023-05-11T09:52:18.830Z,1.95
2023-05-11T09:55:22.095Z,1.80
2023-05-11T09:58:24.528Z,1.70
2023-05-11T10:01:35.200Z,1.62
2023-05-11T10:04:38.032Z,1.58
2023-05-11T10:07:40.914Z,1.83
2023-05-11T10:10:43.750Z,1.58
2023-05-11T10:13:46.252Z,2.40
2023-05-11T10:16:49.180Z,1.70
2023-05-11T10:19:55.213Z,1.62
2023-05-11T10:22:58.018Z,1.62
2023-05-11T10:26:01.255Z,1.55
2023-05-11T10:29:04.136Z,1.50
2023-05-11T10:32:07.980Z,1.62
2023-05-11T10:35:10.756Z,1.70
2023-05-11T10:38:13.633Z,1.90
2023-05-11T10:41:34.938Z,2.15
2023-05-11T10:44:44.263Z,2.03
2023-05-11T10:48:11.696Z,1.67
2023-05-11T10:51:39.574Z,1.60
2023-05-11T10:55:00.407Z,1.75
2023-05-11T10:58:10.490Z,1.83
2023-05-11T11:01:42.036Z,1.47
2023-05-11T11:04:46.830Z,1.62
2023-05-11T11:08:05.904Z,1.70
2023-05-11T11:11:32.535Z,1.23
2023-05-11T11:14:54.962Z,2.10
2023-05-11T11:18:21.459Z,1.67
2023-05-11T11:21:41.509Z,1.50
2023-05-11T11:24:45.649Z,1.42
2023-05-11T11:27:52.441Z,1.45
2023-05-11T11:31:32.516Z,1.37
2023-05-11T11:34:36.609Z,1.83
2023-05-11T11:38:06.142Z,1.80
2023-05-11T11:41:09.522Z,2.03
2023-05-11T11:44:22.220Z,1.80
2023-05-11T11:47:26.842Z,1.80
2023-05-11T11:50:29.576Z,1.40
2023-05-11T11:53:38.312Z,1.85
2023-05-11T11:56:41.772Z,2.35
2023-05-11T11:59:47.865Z,1.80
2023-05-11T12:02:50.553Z,1.93
2023-05-11T12:05:55.709Z,1.50
2023-05-11T12:08:58.339Z,1.83
2023-05-11T12:12:02.365Z,1.60
2023-05-11T12:15:06.855Z,1.70
2023-05-11T12:18:21.285Z,2.13
2023-05-11T12:21:28.633Z,1.73
2023-05-11T12:24:34.537Z,1.58
2023-05-11T12:27:47.132Z,1.90
2023-05-11T12:30:55.397Z,1.50
2023-05-11T12:33:57.862Z,1.30
2023-05-11T12:37:05.970Z,1.80
2023-05-11T12:40:12.050Z,1.55
2023-05-11T12:43:18.502Z,1.27
2023-05-11T12:46:21.494Z,1.70
2023-05-11T12:49:26.394Z,1.80
2023-05-11T12:52:29.675Z,1.70
2023-05-11T12:55:32.893Z,2.00
2023-05-11T12:58:39.335Z,1.50
2023-05-11T13:01:42.167Z,1.75
2023-05-11T13:04:45.478Z,1.80
2023-05-11T13:07:48.742Z,1.60
2023-05-11T13:10:51.348Z,1.60
2023-05-11T13:13:56.202Z,1.60
2023-05-11T13:16:58.732Z,2.12
2023-05-11T13:20:21.123Z,1.80
2023-05-11T13:23:23.566Z,0.97
2023-05-11T13:26:27.413Z,1.50
2023-05-11T13:29:29.926Z,0.98
2023-05-11T13:32:32.910Z,0.95
2023-05-11T13:35:42.479Z,1.80
2023-05-11T13:38:45.667Z,1.27
2023-05-11T13:41:48.358Z,1.83
2023-05-11T13:44:51.123Z,1.80
2023-05-11T13:47:55.334Z,1.50
2023-05-11T13:50:58.321Z,1.40
2023-05-11T13:54:02.466Z,1.37
2023-05-11T13:57:06.190Z,1.80
2023-05-11T14:00:09.937Z,1.60
2023-05-11T14:03:14.582Z,1.80
2023-05-11T14:06:18.026Z,1.20
2023-05-11T14:09:20.544Z,1.30
2023-05-11T14:12:23.331Z,1.15
2023-05-11T14:15:25.755Z,1.52
2023-05-11T14:18:28.903Z,1.30
2023-05-11T14:21:32.555Z,1.80
2023-05-11T14:24:35.303Z,1.60
2023-05-11T14:27:37.777Z,1.37
2023-05-11T14:30:40.592Z,1.20
2023-05-11T14:33:43.033Z,1.42
2023-05-11T14:36:45.844Z,1.83
2023-05-11T14:39:48.220Z,1.50
2023-05-11T14:42:54.327Z,1.55
2023-05-11T14:45:57.404Z,1.25
2023-05-11T14:48:59.857Z,0.90
2023-05-11T14:52:02.552Z,1.30
2023-05-11T14:55:05.781Z,1.20
2023-05-11T14:58:09.254Z,1.25
2023-05-11T15:01:11.700Z,2.10
2023-05-11T15:04:16.001Z,1.80
2023-05-11T15:07:19.298Z,1.50
2023-05-11T15:10:22.040Z,2.53
2023-05-11T15:13:24.691Z,1.15
2023-05-11T15:16:27.520Z,2.00
2023-05-11T15:19:29.995Z,1.45
2023-05-11T15:22:32.769Z,1.50
2023-05-11T15:25:36.393Z,2.27
2023-05-11T15:28:39.071Z,2.00
2023-05-11T15:31:41.550Z,1.75
2023-05-11T15:34:58.429Z,6.50
2023-05-11T15:38:02.285Z,1.90
2023-05-11T15:41:05.038Z,1.50
2023-05-11T15:44:07.563Z,1.65
2023-05-11T15:47:10.280Z,1.30
2023-05-11T15:50:13.007Z,1.30
2023-05-11T15:53:15.737Z,1.23
2023-05-11T15:56:18.155Z,1.03
2023-05-11T15:59:20.966Z,1.48
2023-05-11T16:02:23.495Z,1.35
2023-05-11T16:05:28.258Z,3.62
2023-05-11T16:08:30.782Z,1.60
2023-05-11T16:11:33.598Z,2.00
2023-05-11T16:14:36.218Z,1.50
2023-05-11T16:17:38.988Z,1.80
2023-05-11T16:20:43.161Z,1.62
2023-05-11T16:23:45.979Z,1.73
2023-05-11T16:29:52.341Z,1.65
2023-05-11T16:32:54.974Z,2.00
2023-05-11T16:35:57.896Z,1.75
2023-05-11T16:39:00.346Z,1.40
2023-05-11T16:42:03.262Z,1.40
2023-05-11T16:45:06.567Z,1.50
2023-05-11T16:48:09.309Z,1.40
2023-05-11T16:51:11.821Z,1.60
2023-05-11T16:54:15.011Z,1.70
2023-05-11T16:57:17.516Z,1.60
2023-05-11T17:00:20.648Z,1.52
2023-05-11T17:03:23.536Z,1.40
2023-05-11T17:06:27.441Z,1.60
2023-05-11T17:09:30.120Z,1.57
2023-05-11T17:12:35.637Z,1.43
2023-05-11T17:15:38.292Z,1.50
2023-05-11T17:18:41.048Z,1.85
2023-05-11T17:21:43.608Z,1.20
2023-05-11T17:24:46.827Z,1.70
2023-05-11T17:27:49.417Z,1.80
2023-05-11T17:30:55.037Z,1.08
2023-05-11T17:33:58.132Z,1.87
2023-05-11T17:37:01.200Z,1.50
2023-05-11T17:40:08.372Z,1.80
2023-05-11T17:43:11.581Z,1.50
2023-05-11T17:46:14.231Z,1.50
2023-05-11T17:49:17.012Z,1.48
2023-05-11T17:52:19.479Z,2.03
2023-05-11T17:55:22.248Z,2.60
2023-05-11T17:58:24.782Z,2.37
2023-05-11T18:01:28.017Z,2.00
2023-05-11T18:04:31.145Z,1.87
2023-05-11T18:07:33.609Z,2.40
2023-05-11T18:10:36.898Z,2.90
2023-05-11T18:13:39.644Z,2.50
2023-05-11T18:16:42.482Z,2.80
2023-05-11T18:19:44.883Z,2.92
2023-05-11T18:22:47.602Z,3.22
2023-05-11T18:25:50.070Z,2.93
2023-05-11T18:28:55.042Z,3.70
2023-05-11T18:31:57.535Z,3.42
2023-05-11T18:35:00.369Z,2.85
2023-05-11T18:38:04.786Z,3.47
2023-05-11T18:41:08.054Z,2.90
2023-05-11T18:44:10.453Z,3.60
2023-05-11T18:47:13.341Z,4.43
2023-05-11T18:50:15.871Z,4.62
2023-05-11T18:53:18.753Z,4.22
2023-05-11T18:56:22.231Z,3.43
2023-05-11T18:59:24.933Z,3.30
2023-05-11T19:02:27.582Z,2.65
2023-05-11T19:05:30.606Z,2.70
2023-05-11T19:08:33.410Z,2.80
2023-05-11T19:11:36.231Z,2.77
2023-05-11T19:14:39.143Z,2.53
2023-05-11T19:17:42.092Z,2.95
2023-05-11T19:20:44.681Z,3.05
2023-05-11T19:23:48.309Z,2.90
2023-05-11T19:27:02.984Z,3.30
2023-05-11T19:30:10.307Z,3.27
2023-05-11T19:33:13.045Z,3.12
2023-05-11T19:36:16.033Z,3.15
2023-05-11T19:39:18.476Z,3.00
2023-05-11T19:42:25.958Z,3.20
2023-05-11T19:45:38.558Z,2.97
2023-05-11T19:48:41.741Z,3.15
2023-05-11T19:51:44.256Z,2.72
2023-05-11T19:54:47.212Z,2.97
2023-05-11T19:57:49.671Z,2.70
2023-05-11T20:00:52.463Z,2.43
2023-05-11T20:03:56.156Z,2.97
2023-05-11T20:06:59.075Z,2.90
2023-05-11T20:10:02.222Z,3.30
2023-05-11T20:13:05.691Z,4.17
2023-05-11T20:16:08.561Z,3.97
2023-05-11T20:19:11.506Z,3.03
2023-05-11T20:22:14.445Z,3.00
2023-05-11T20:25:18.748Z,3.42
2023-05-11T20:28:22.190Z,4.07
2023-05-11T20:31:26.182Z,4.50
2023-05-11T20:34:28.962Z,3.90
2023-05-11T20:37:31.950Z,3.53
2023-05-11T20:40:34.667Z,2.62
2023-05-11T20:43:37.110Z,3.30
2023-05-11T20:46:43.039Z,3.33
2023-05-11T20:49:47.691Z,3.22
2023-05-11T20:52:50.466Z,3.42
2023-05-11T20:55:52.884Z,2.95
2023-05-11T20:58:55.627Z,2.90
2023-05-11T21:01:58.822Z,3.10
2023-05-11T21:05:02.365Z,3.05
2023-05-11T21:08:05.431Z,3.47
2023-05-11T21:11:08.160Z,2.92
2023-05-11T21:14:10.597Z,3.50
2023-05-11T21:17:13.315Z,3.37
2023-05-11T21:20:16.443Z,3.15
2023-05-11T21:23:19.169Z,3.10
2023-05-11T21:26:22.098Z,3.40
2023-05-11T21:29:24.769Z,3.27
2023-05-11T21:32:27.281Z,3.50
2023-05-11T21:35:30.057Z,3.60
2023-05-11T21:38:32.498Z,3.35
2023-05-11T21:41:35.326Z,3.12
2023-05-11T21:44:37.918Z,3.20
2023-05-11T21:47:40.697Z,3.07
2023-05-11T21:50:43.498Z,3.60
2023-05-11T21:53:46.270Z,3.30
2023-05-11T21:56:49.585Z,4.07
2023-05-11T21:59:52.296Z,3.20
2023-05-11T22:02:54.778Z,3.73
2023-05-11T22:05:57.744Z,3.10
2023-05-11T22:09:00.188Z,3.62
2023-05-11T22:12:03.059Z,3.60
2023-05-11T22:15:08.491Z,3.40
2023-05-11T22:18:11.218Z,3.20
2023-05-11T22:21:13.794Z,3.47
2023-05-11T22:24:16.700Z,3.67
2023-05-11T22:27:19.603Z,3.55
2023-05-11T22:30:22.723Z,3.30
2023-05-11T22:33:25.562Z,3.40
2023-05-11T22:36:28.851Z,3.90
2023-05-11T22:39:32.545Z,3.40
2023-05-11T22:42:35.389Z,3.72
2023-05-11T22:45:37.919Z,3.70
2023-05-11T22:48:40.600Z,4.27
2023-05-11T22:51:43.830Z,4.10
2023-05-11T22:54:46.546Z,4.07
2023-05-11T22:57:49.867Z,4.07
2023-05-11T23:00:55.792Z,4.23
2023-05-11T23:03:58.431Z,3.40
2023-05-11T23:07:01.248Z,3.75
2023-05-11T23:10:03.813Z,4.53
2023-05-11T23:13:06.562Z,4.20
2023-05-11T23:16:09.067Z,3.97
2023-05-11T23:19:11.822Z,4.90
2023-05-11T23:22:14.489Z,4.37
2023-05-11T23:25:17.224Z,4.10
2023-05-11T23:28:20.183Z,4.00
2023-05-11T23:31:22.948Z,4.47
2023-05-11T23:34:25.394Z,4.30
2023-05-11T23:37:28.087Z,4.00
2023-05-11T23:40:30.816Z,4.12
2023-05-11T23:43:33.570Z,4.30
2023-05-11T23:46:36.272Z,4.50
2023-05-11T23:49:39.068Z,4.22
2023-05-11T23:52:41.677Z,3.33
2023-05-11T23:55:47.925Z,5.12
2023-05-11T23:58:50.685Z,4.63
